sensor_id;sensor_type;location;lat;lon;timestamp;P1;durP1;ratioP1;P2;durP2;ratioP2
31724;SDS011;18306;40.960;14.836;2022-07-22T00:01:04;9.65;;;5.72;;
31724;SDS011;18306;40.960;14.836;2022-07-22T00:03:32;8.25;;;5.78;;
31724;SDS011;18306;40.960;14.836;2022-07-22T00:05:59;6.18;;;5.22;;
31724;SDS011;18306;40.960;14.836;2022-07-22T00:08:26;8.18;;;5.13;;
31724;SDS011;18306;40.960;14.836;2022-07-22T00:10:53;9.80;;;5.45;;
31724;SDS011;18306;40.960;14.836;2022-07-22T00:13:21;13.23;;;6.75;;
31724;SDS011;18306;40.960;14.836;2022-07-22T00:15:48;14.63;;;7.32;;
31724;SDS011;18306;40.960;14.836;2022-07-22T00:18:19;10.40;;;5.88;;
31724;SDS011;18306;40.960;14.836;2022-07-22T00:20:46;9.63;;;5.65;;
31724;SDS011;18306;40.960;14.836;2022-07-22T00:23:13;9.23;;;5.78;;
31724;SDS011;18306;40.960;14.836;2022-07-22T00:25:40;8.57;;;5.45;;
31724;SDS011;18306;40.960;14.836;2022-07-22T00:28:08;7.05;;;6.05;;
31724;SDS011;18306;40.960;14.836;2022-07-22T00:30:35;6.63;;;4.70;;
31724;SDS011;18306;40.960;14.836;2022-07-22T00:33:02;8.27;;;4.93;;
31724;SDS011;18306;40.960;14.836;2022-07-22T00:35:30;9.13;;;5.63;;
31724;SDS011;18306;40.960;14.836;2022-07-22T00:37:57;8.05;;;5.53;;
31724;SDS011;18306;40.960;14.836;2022-07-22T00:40:25;7.85;;;5.50;;
31724;SDS011;18306;40.960;14.836;2022-07-22T00:42:53;8.60;;;5.78;;
31724;SDS011;18306;40.960;14.836;2022-07-22T00:45:20;19.67;;;6.43;;
31724;SDS011;18306;40.960;14.836;2022-07-22T00:47:47;35.83;;;9.60;;
31724;SDS011;18306;40.960;14.836;2022-07-22T00:50:15;13.95;;;5.10;;
31724;SDS011;18306;40.960;14.836;2022-07-22T00:52:43;7.82;;;5.03;;
31724;SDS011;18306;40.960;14.836;2022-07-22T00:55:10;10.77;;;5.07;;
31724;SDS011;18306;40.960;14.836;2022-07-22T00:57:38;9.95;;;5.38;;
31724;SDS011;18306;40.960;14.836;2022-07-22T01:00:07;11.20;;;5.70;;
31724;SDS011;18306;40.960;14.836;2022-07-22T01:02:38;11.55;;;5.85;;
31724;SDS011;18306;40.960;14.836;2022-07-22T01:05:05;11.77;;;5.95;;
31724;SDS011;18306;40.960;14.836;2022-07-22T01:07:33;9.95;;;4.82;;
31724;SDS011;18306;40.960;14.836;2022-07-22T01:10:00;9.80;;;5.07;;
31724;SDS011;18306;40.960;14.836;2022-07-22T01:12:28;9.50;;;6.13;;
31724;SDS011;18306;40.960;14.836;2022-07-22T01:14:56;7.95;;;4.40;;
31724;SDS011;18306;40.960;14.836;2022-07-22T01:17:23;7.07;;;5.20;;
31724;SDS011;18306;40.960;14.836;2022-07-22T01:19:50;10.43;;;5.90;;
31724;SDS011;18306;40.960;14.836;2022-07-22T01:22:19;9.50;;;5.10;;
31724;SDS011;18306;40.960;14.836;2022-07-22T01:24:47;11.00;;;5.53;;
31724;SDS011;18306;40.960;14.836;2022-07-22T01:27:14;6.22;;;4.53;;
31724;SDS011;18306;40.960;14.836;2022-07-22T01:29:41;13.82;;;5.13;;
31724;SDS011;18306;40.960;14.836;2022-07-22T01:32:09;13.35;;;6.10;;
31724;SDS011;18306;40.960;14.836;2022-07-22T01:34:36;8.13;;;5.07;;
31724;SDS011;18306;40.960;14.836;2022-07-22T01:37:03;6.28;;;4.88;;
31724;SDS011;18306;40.960;14.836;2022-07-22T01:39:30;7.38;;;5.18;;
31724;SDS011;18306;40.960;14.836;2022-07-22T01:42:02;13.73;;;5.18;;
31724;SDS011;18306;40.960;14.836;2022-07-22T01:44:31;10.95;;;6.22;;
31724;SDS011;18306;40.960;14.836;2022-07-22T01:47:00;13.98;;;5.75;;
31724;SDS011;18306;40.960;14.836;2022-07-22T01:49:27;7.03;;;5.32;;
31724;SDS011;18306;40.960;14.836;2022-07-22T01:51:55;8.68;;;5.75;;
31724;SDS011;18306;40.960;14.836;2022-07-22T01:54:22;6.28;;;4.45;;
31724;SDS011;18306;40.960;14.836;2022-07-22T01:56:49;12.30;;;6.18;;
31724;SDS011;18306;40.960;14.836;2022-07-22T01:59:16;13.75;;;7.45;;
31724;SDS011;18306;40.960;14.836;2022-07-22T02:01:45;18.90;;;6.78;;
31724;SDS011;18306;40.960;14.836;2022-07-22T02:04:14;27.20;;;9.55;;
31724;SDS011;18306;40.960;14.836;2022-07-22T02:06:41;12.93;;;7.00;;
31724;SDS011;18306;40.960;14.836;2022-07-22T02:09:10;6.72;;;5.40;;
31724;SDS011;18306;40.960;14.836;2022-07-22T02:11:43;11.48;;;5.82;;
31724;SDS011;18306;40.960;14.836;2022-07-22T02:14:15;5.15;;;4.60;;
31724;SDS011;18306;40.960;14.836;2022-07-22T02:16:43;17.30;;;7.00;;
31724;SDS011;18306;40.960;14.836;2022-07-22T02:19:11;7.32;;;5.35;;
31724;SDS011;18306;40.960;14.836;2022-07-22T02:21:39;14.98;;;6.78;;
31724;SDS011;18306;40.960;14.836;2022-07-22T02:24:08;14.15;;;5.80;;
31724;SDS011;18306;40.960;14.836;2022-07-22T02:26:38;7.18;;;5.55;;
31724;SDS011;18306;40.960;14.836;2022-07-22T02:29:17;12.57;;;6.35;;
31724;SDS011;18306;40.960;14.836;2022-07-22T02:31:45;10.23;;;6.05;;
31724;SDS011;18306;40.960;14.836;2022-07-22T02:34:16;9.75;;;6.35;;
31724;SDS011;18306;40.960;14.836;2022-07-22T02:36:47;8.35;;;5.18;;
31724;SDS011;18306;40.960;14.836;2022-07-22T02:39:14;6.70;;;5.70;;
31724;SDS011;18306;40.960;14.836;2022-07-22T02:41:41;11.30;;;5.43;;
31724;SDS011;18306;40.960;14.836;2022-07-22T02:44:09;9.65;;;5.53;;
31724;SDS011;18306;40.960;14.836;2022-07-22T02:46:36;7.32;;;5.40;;
31724;SDS011;18306;40.960;14.836;2022-07-22T02:49:14;15.15;;;5.70;;
31724;SDS011;18306;40.960;14.836;2022-07-22T02:51:43;16.83;;;6.00;;
31724;SDS011;18306;40.960;14.836;2022-07-22T02:54:10;6.15;;;5.32;;
31724;SDS011;18306;40.960;14.836;2022-07-22T02:56:38;7.50;;;5.35;;
31724;SDS011;18306;40.960;14.836;2022-07-22T02:59:09;14.43;;;6.95;;
31724;SDS011;18306;40.960;14.836;2022-07-22T03:01:36;19.00;;;7.20;;
31724;SDS011;18306;40.960;14.836;2022-07-22T03:04:04;6.30;;;5.30;;
31724;SDS011;18306;40.960;14.836;2022-07-22T03:06:35;10.25;;;6.28;;
31724;SDS011;18306;40.960;14.836;2022-07-22T03:09:10;11.02;;;6.43;;
31724;SDS011;18306;40.960;14.836;2022-07-22T03:11:41;10.10;;;6.30;;
31724;SDS011;18306;40.960;14.836;2022-07-22T03:14:09;8.43;;;5.20;;
31724;SDS011;18306;40.960;14.836;2022-07-22T03:16:37;12.75;;;4.65;;
31724;SDS011;18306;40.960;14.836;2022-07-22T03:19:05;10.00;;;5.85;;
31724;SDS011;18306;40.960;14.836;2022-07-22T03:21:32;5.97;;;4.65;;
31724;SDS011;18306;40.960;14.836;2022-07-22T03:23:59;7.10;;;5.13;;
31724;SDS011;18306;40.960;14.836;2022-07-22T03:26:26;7.97;;;5.63;;
31724;SDS011;18306;40.960;14.836;2022-07-22T03:28:54;11.43;;;5.75;;
31724;SDS011;18306;40.960;14.836;2022-07-22T03:31:21;8.40;;;5.85;;
31724;SDS011;18306;40.960;14.836;2022-07-22T03:33:49;11.05;;;5.70;;
31724;SDS011;18306;40.960;14.836;2022-07-22T03:36:16;7.82;;;5.85;;
31724;SDS011;18306;40.960;14.836;2022-07-22T03:38:47;11.50;;;6.07;;
31724;SDS011;18306;40.960;14.836;2022-07-22T03:41:14;13.65;;;6.90;;
31724;SDS011;18306;40.960;14.836;2022-07-22T03:43:42;10.15;;;5.80;;
31724;SDS011;18306;40.960;14.836;2022-07-22T03:46:09;12.10;;;5.68;;
31724;SDS011;18306;40.960;14.836;2022-07-22T03:48:38;10.05;;;6.35;;
31724;SDS011;18306;40.960;14.836;2022-07-22T03:51:05;12.95;;;6.15;;
31724;SDS011;18306;40.960;14.836;2022-07-22T03:53:40;7.22;;;5.68;;
31724;SDS011;18306;40.960;14.836;2022-07-22T03:56:19;6.83;;;5.10;;
31724;SDS011;18306;40.960;14.836;2022-07-22T03:59:02;14.48;;;6.15;;
31724;SDS011;18306;40.960;14.836;2022-07-22T04:01:45;6.72;;;5.00;;
31724;SDS011;18306;40.960;14.836;2022-07-22T04:04:23;9.05;;;4.75;;
31724;SDS011;18306;40.960;14.836;2022-07-22T04:06:55;10.60;;;6.15;;
31724;SDS011;18306;40.960;14.836;2022-07-22T04:09:29;10.18;;;5.95;;
31724;SDS011;18306;40.960;14.836;2022-07-22T04:11:56;10.63;;;5.35;;
31724;SDS011;18306;40.960;14.836;2022-07-22T04:14:31;10.95;;;5.63;;
31724;SDS011;18306;40.960;14.836;2022-07-22T04:17:13;7.30;;;5.20;;
31724;SDS011;18306;40.960;14.836;2022-07-22T04:19:40;6.35;;;5.03;;
31724;SDS011;18306;40.960;14.836;2022-07-22T04:22:19;9.50;;;5.28;;
31724;SDS011;18306;40.960;14.836;2022-07-22T04:24:46;9.40;;;6.38;;
31724;SDS011;18306;40.960;14.836;2022-07-22T04:27:14;9.30;;;4.93;;
31724;SDS011;18306;40.960;14.836;2022-07-22T04:29:41;8.45;;;4.63;;
31724;SDS011;18306;40.960;14.836;2022-07-22T04:32:08;9.05;;;5.88;;
31724;SDS011;18306;40.960;14.836;2022-07-22T04:34:36;7.30;;;5.38;;
31724;SDS011;18306;40.960;14.836;2022-07-22T04:37:03;9.40;;;6.13;;
31724;SDS011;18306;40.960;14.836;2022-07-22T04:39:34;6.63;;;4.78;;
31724;SDS011;18306;40.960;14.836;2022-07-22T04:42:02;7.07;;;5.30;;
31724;SDS011;18306;40.960;14.836;2022-07-22T04:44:30;9.18;;;4.35;;
31724;SDS011;18306;40.960;14.836;2022-07-22T04:46:57;9.23;;;5.85;;
31724;SDS011;18306;40.960;14.836;2022-07-22T04:49:25;8.48;;;6.10;;
31724;SDS011;18306;40.960;14.836;2022-07-22T04:51:52;7.70;;;5.28;;
31724;SDS011;18306;40.960;14.836;2022-07-22T04:54:30;9.48;;;5.85;;
31724;SDS011;18306;40.960;14.836;2022-07-22T04:56:58;7.35;;;5.68;;
31724;SDS011;18306;40.960;14.836;2022-07-22T04:59:25;13.68;;;5.57;;
31724;SDS011;18306;40.960;14.836;2022-07-22T05:01:52;8.95;;;5.38;;
31724;SDS011;18306;40.960;14.836;2022-07-22T05:04:20;11.05;;;5.97;;
31724;SDS011;18306;40.960;14.836;2022-07-22T05:06:47;9.57;;;5.65;;
31724;SDS011;18306;40.960;14.836;2022-07-22T05:09:15;7.38;;;5.72;;
31724;SDS011;18306;40.960;14.836;2022-07-22T05:11:42;8.15;;;6.63;;
31724;SDS011;18306;40.960;14.836;2022-07-22T05:14:09;6.00;;;4.50;;
31724;SDS011;18306;40.960;14.836;2022-07-22T05:16:36;6.72;;;5.28;;
31724;SDS011;18306;40.960;14.836;2022-07-22T05:19:04;12.43;;;5.60;;
31724;SDS011;18306;40.960;14.836;2022-07-22T05:21:33;10.07;;;6.38;;
31724;SDS011;18306;40.960;14.836;2022-07-22T05:24:00;14.13;;;5.80;;
31724;SDS011;18306;40.960;14.836;2022-07-22T05:26:27;9.38;;;5.78;;
31724;SDS011;18306;40.960;14.836;2022-07-22T05:28:56;10.25;;;5.30;;
31724;SDS011;18306;40.960;14.836;2022-07-22T05:31:23;5.85;;;4.90;;
31724;SDS011;18306;40.960;14.836;2022-07-22T05:33:50;9.55;;;5.10;;
31724;SDS011;18306;40.960;14.836;2022-07-22T05:36:41;9.05;;;5.32;;
31724;SDS011;18306;40.960;14.836;2022-07-22T05:39:08;6.68;;;4.78;;
31724;SDS011;18306;40.960;14.836;2022-07-22T05:41:36;14.30;;;4.75;;
31724;SDS011;18306;40.960;14.836;2022-07-22T05:44:06;9.00;;;3.88;;
31724;SDS011;18306;40.960;14.836;2022-07-22T05:46:34;5.90;;;4.20;;
31724;SDS011;18306;40.960;14.836;2022-07-22T05:49:03;9.15;;;4.78;;
31724;SDS011;18306;40.960;14.836;2022-07-22T05:51:39;11.40;;;4.30;;
31724;SDS011;18306;40.960;14.836;2022-07-22T05:54:07;4.68;;;3.60;;
31724;SDS011;18306;40.960;14.836;2022-07-22T05:56:34;4.28;;;3.40;;
31724;SDS011;18306;40.960;14.836;2022-07-22T05:59:01;6.10;;;4.53;;
31724;SDS011;18306;40.960;14.836;2022-07-22T06:01:29;4.88;;;4.32;;
31724;SDS011;18306;40.960;14.836;2022-07-22T06:03:59;7.00;;;3.97;;
31724;SDS011;18306;40.960;14.836;2022-07-22T06:06:26;4.57;;;3.42;;
31724;SDS011;18306;40.960;14.836;2022-07-22T06:08:55;4.45;;;4.05;;
31724;SDS011;18306;40.960;14.836;2022-07-22T06:11:22;4.25;;;3.53;;
31724;SDS011;18306;40.960;14.836;2022-07-22T06:13:49;5.85;;;4.35;;
31724;SDS011;18306;40.960;14.836;2022-07-22T06:16:16;6.97;;;4.40;;
31724;SDS011;18306;40.960;14.836;2022-07-22T06:18:46;10.93;;;4.05;;
31724;SDS011;18306;40.960;14.836;2022-07-22T06:21:13;7.35;;;4.03;;
31724;SDS011;18306;40.960;14.836;2022-07-22T06:23:40;7.03;;;3.70;;
31724;SDS011;18306;40.960;14.836;2022-07-22T06:26:07;7.47;;;3.65;;
31724;SDS011;18306;40.960;14.836;2022-07-22T06:28:35;4.05;;;3.75;;
31724;SDS011;18306;40.960;14.836;2022-07-22T06:31:03;9.52;;;4.25;;
31724;SDS011;18306;40.960;14.836;2022-07-22T06:33:30;5.82;;;3.25;;
31724;SDS011;18306;40.960;14.836;2022-07-22T06:36:00;4.40;;;3.17;;
31724;SDS011;18306;40.960;14.836;2022-07-22T06:38:29;5.05;;;3.35;;
31724;SDS011;18306;40.960;14.836;2022-07-22T06:41:22;4.60;;;3.15;;
31724;SDS011;18306;40.960;14.836;2022-07-22T06:44:05;6.93;;;3.58;;
31724;SDS011;18306;40.960;14.836;2022-07-22T06:46:44;9.23;;;4.07;;
31724;SDS011;18306;40.960;14.836;2022-07-22T06:49:12;5.88;;;3.92;;
31724;SDS011;18306;40.960;14.836;2022-07-22T06:51:40;5.82;;;3.47;;
31724;SDS011;18306;40.960;14.836;2022-07-22T06:54:07;7.63;;;3.35;;
31724;SDS011;18306;40.960;14.836;2022-07-22T06:56:34;5.57;;;3.65;;
31724;SDS011;18306;40.960;14.836;2022-07-22T06:59:03;4.05;;;3.65;;
31724;SDS011;18306;40.960;14.836;2022-07-22T07:01:30;4.75;;;3.45;;
31724;SDS011;18306;40.960;14.836;2022-07-22T07:04:00;3.92;;;2.53;;
31724;SDS011;18306;40.960;14.836;2022-07-22T07:06:28;5.47;;;3.00;;
31724;SDS011;18306;40.960;14.836;2022-07-22T07:09:12;6.68;;;3.55;;
31724;SDS011;18306;40.960;14.836;2022-07-22T07:11:41;4.13;;;3.25;;
31724;SDS011;18306;40.960;14.836;2022-07-22T07:14:16;3.45;;;3.10;;
31724;SDS011;18306;40.960;14.836;2022-07-22T07:16:43;4.78;;;3.42;;
31724;SDS011;18306;40.960;14.836;2022-07-22T07:19:11;3.10;;;2.78;;
31724;SDS011;18306;40.960;14.836;2022-07-22T07:21:38;5.45;;;2.60;;
31724;SDS011;18306;40.960;14.836;2022-07-22T07:24:08;5.40;;;3.88;;
31724;SDS011;18306;40.960;14.836;2022-07-22T07:26:35;2.85;;;2.58;;
31724;SDS011;18306;40.960;14.836;2022-07-22T07:29:03;3.50;;;3.13;;
31724;SDS011;18306;40.960;14.836;2022-07-22T07:31:32;4.10;;;2.53;;
31724;SDS011;18306;40.960;14.836;2022-07-22T07:34:03;7.65;;;3.35;;
31724;SDS011;18306;40.960;14.836;2022-07-22T07:36:30;10.07;;;3.90;;
31724;SDS011;18306;40.960;14.836;2022-07-22T07:38:57;8.00;;;4.82;;
31724;SDS011;18306;40.960;14.836;2022-07-22T07:41:25;5.10;;;3.60;;
31724;SDS011;18306;40.960;14.836;2022-07-22T07:43:52;5.43;;;4.55;;
31724;SDS011;18306;40.960;14.836;2022-07-22T07:46:20;8.45;;;4.43;;
31724;SDS011;18306;40.960;14.836;2022-07-22T07:48:47;7.57;;;4.60;;
31724;SDS011;18306;40.960;14.836;2022-07-22T07:51:15;11.27;;;3.67;;
31724;SDS011;18306;40.960;14.836;2022-07-22T07:53:46;10.88;;;5.45;;
31724;SDS011;18306;40.960;14.836;2022-07-22T07:56:13;7.15;;;5.82;;
31724;SDS011;18306;40.960;14.836;2022-07-22T07:58:40;8.90;;;4.90;;
31724;SDS011;18306;40.960;14.836;2022-07-22T08:01:08;8.73;;;3.80;;
31724;SDS011;18306;40.960;14.836;2022-07-22T08:03:36;7.55;;;4.68;;
31724;SDS011;18306;40.960;14.836;2022-07-22T08:06:04;16.50;;;4.55;;
31724;SDS011;18306;40.960;14.836;2022-07-22T08:08:32;7.38;;;3.55;;
31724;SDS011;18306;40.960;14.836;2022-07-22T08:11:11;7.13;;;3.90;;
31724;SDS011;18306;40.960;14.836;2022-07-22T08:13:56;7.78;;;4.07;;
31724;SDS011;18306;40.960;14.836;2022-07-22T08:16:34;6.18;;;3.28;;
31724;SDS011;18306;40.960;14.836;2022-07-22T08:19:01;4.80;;;3.00;;
31724;SDS011;18306;40.960;14.836;2022-07-22T08:21:29;6.32;;;3.17;;
31724;SDS011;18306;40.960;14.836;2022-07-22T08:23:58;6.72;;;3.33;;
31724;SDS011;18306;40.960;14.836;2022-07-22T08:26:25;5.70;;;4.07;;
31724;SDS011;18306;40.960;14.836;2022-07-22T08:28:53;3.35;;;3.05;;
31724;SDS011;18306;40.960;14.836;2022-07-22T08:31:20;3.13;;;2.63;;
31724;SDS011;18306;40.960;14.836;2022-07-22T08:33:48;5.88;;;2.60;;
31724;SDS011;18306;40.960;14.836;2022-07-22T08:36:15;4.25;;;2.38;;
31724;SDS011;18306;40.960;14.836;2022-07-22T08:38:43;3.97;;;2.72;;
31724;SDS011;18306;40.960;14.836;2022-07-22T08:41:10;2.67;;;2.20;;
31724;SDS011;18306;40.960;14.836;2022-07-22T08:43:40;3.40;;;2.35;;
31724;SDS011;18306;40.960;14.836;2022-07-22T08:46:08;2.10;;;2.00;;
31724;SDS011;18306;40.960;14.836;2022-07-22T08:48:55;4.50;;;2.42;;
31724;SDS011;18306;40.960;14.836;2022-07-22T08:51:43;3.28;;;2.78;;
31724;SDS011;18306;40.960;14.836;2022-07-22T08:54:23;3.80;;;2.38;;
31724;SDS011;18306;40.960;14.836;2022-07-22T08:56:51;5.07;;;2.17;;
31724;SDS011;18306;40.960;14.836;2022-07-22T08:59:20;4.85;;;2.67;;
31724;SDS011;18306;40.960;14.836;2022-07-22T09:02:06;11.40;;;2.47;;
31724;SDS011;18306;40.960;14.836;2022-07-22T09:04:51;4.68;;;3.25;;
31724;SDS011;18306;40.960;14.836;2022-07-22T09:07:24;4.47;;;2.50;;
31724;SDS011;18306;40.960;14.836;2022-07-22T09:10:23;2.80;;;2.28;;
31724;SDS011;18306;40.960;14.836;2022-07-22T09:13:14;4.55;;;2.40;;
31724;SDS011;18306;40.960;14.836;2022-07-22T09:16:02;4.13;;;2.78;;
31724;SDS011;18306;40.960;14.836;2022-07-22T09:18:49;3.25;;;2.90;;
31724;SDS011;18306;40.960;14.836;2022-07-22T09:21:44;2.83;;;2.13;;
31724;SDS011;18306;40.960;14.836;2022-07-22T09:24:26;4.70;;;2.05;;
31724;SDS011;18306;40.960;14.836;2022-07-22T09:26:56;7.57;;;2.60;;
31724;SDS011;18306;40.960;14.836;2022-07-22T09:29:36;3.40;;;2.53;;
31724;SDS011;18306;40.960;14.836;2022-07-22T09:32:16;4.22;;;3.42;;
31724;SDS011;18306;40.960;14.836;2022-07-22T09:34:49;2.93;;;2.53;;
31724;SDS011;18306;40.960;14.836;2022-07-22T09:37:25;4.60;;;2.50;;
31724;SDS011;18306;40.960;14.836;2022-07-22T09:39:52;3.33;;;2.85;;
31724;SDS011;18306;40.960;14.836;2022-07-22T09:42:21;4.30;;;3.35;;
31724;SDS011;18306;40.960;14.836;2022-07-22T09:44:48;4.55;;;2.38;;
31724;SDS011;18306;40.960;14.836;2022-07-22T09:47:29;3.88;;;2.75;;
31724;SDS011;18306;40.960;14.836;2022-07-22T09:50:29;3.80;;;2.50;;
31724;SDS011;18306;40.960;14.836;2022-07-22T09:53:39;3.17;;;2.58;;
31724;SDS011;18306;40.960;14.836;2022-07-22T09:56:28;6.65;;;3.10;;
31724;SDS011;18306;40.960;14.836;2022-07-22T09:59:02;8.07;;;3.15;;
31724;SDS011;18306;40.960;14.836;2022-07-22T10:01:38;3.40;;;2.97;;
31724;SDS011;18306;40.960;14.836;2022-07-22T10:04:19;4.88;;;3.42;;
31724;SDS011;18306;40.960;14.836;2022-07-22T10:06:53;4.93;;;3.13;;
31724;SDS011;18306;40.960;14.836;2022-07-22T10:09:25;6.40;;;2.60;;
31724;SDS011;18306;40.960;14.836;2022-07-22T10:11:54;5.53;;;2.83;;
31724;SDS011;18306;40.960;14.836;2022-07-22T10:14:24;4.47;;;2.90;;
31724;SDS011;18306;40.960;14.836;2022-07-22T10:16:56;8.13;;;3.05;;
31724;SDS011;18306;40.960;14.836;2022-07-22T10:19:24;3.22;;;2.70;;
31724;SDS011;18306;40.960;14.836;2022-07-22T10:21:51;5.60;;;3.63;;
31724;SDS011;18306;40.960;14.836;2022-07-22T10:24:20;6.07;;;3.05;;
31724;SDS011;18306;40.960;14.836;2022-07-22T10:27:08;5.55;;;3.10;;
31724;SDS011;18306;40.960;14.836;2022-07-22T10:29:39;7.07;;;2.90;;
31724;SDS011;18306;40.960;14.836;2022-07-22T10:45:25;2.63;;;2.08;;
31724;SDS011;18306;40.960;14.836;2022-07-22T10:48:05;3.72;;;2.85;;
31724;SDS011;18306;40.960;14.836;2022-07-22T10:53:04;3.10;;;2.75;;
31724;SDS011;18306;40.960;14.836;2022-07-22T10:55:33;2.90;;;2.60;;
31724;SDS011;18306;40.960;14.836;2022-07-22T10:58:49;4.55;;;3.05;;
31724;SDS011;18306;40.960;14.836;2022-07-22T11:01:02;2.88;;;2.33;;
31724;SDS011;18306;40.960;14.836;2022-07-22T11:03:31;2.80;;;2.22;;
31724;SDS011;18306;40.960;14.836;2022-07-22T11:06:12;4.15;;;2.65;;
31724;SDS011;18306;40.960;14.836;2022-07-22T11:08:40;3.33;;;2.58;;
31724;SDS011;18306;40.960;14.836;2022-07-22T11:11:09;2.30;;;2.10;;
31724;SDS011;18306;40.960;14.836;2022-07-22T11:13:37;7.30;;;2.58;;
31724;SDS011;18306;40.960;14.836;2022-07-22T11:18:52;2.47;;;1.90;;
31724;SDS011;18306;40.960;14.836;2022-07-22T11:21:23;3.92;;;2.33;;
31724;SDS011;18306;40.960;14.836;2022-07-22T11:23:52;3.10;;;2.40;;
31724;SDS011;18306;40.960;14.836;2022-07-22T11:26:24;5.35;;;3.13;;
31724;SDS011;18306;40.960;14.836;2022-07-22T11:28:58;6.85;;;2.58;;
31724;SDS011;18306;40.960;14.836;2022-07-22T11:31:26;3.60;;;2.50;;
31724;SDS011;18306;40.960;14.836;2022-07-22T11:34:05;3.78;;;2.55;;
31724;SDS011;18306;40.960;14.836;2022-07-22T11:36:38;3.80;;;2.47;;
31724;SDS011;18306;40.960;14.836;2022-07-22T11:39:09;4.78;;;3.00;;
31724;SDS011;18306;40.960;14.836;2022-07-22T11:41:38;5.38;;;2.67;;
31724;SDS011;18306;40.960;14.836;2022-07-22T11:44:06;2.85;;;2.13;;
31724;SDS011;18306;40.960;14.836;2022-07-22T11:46:41;3.45;;;2.50;;
31724;SDS011;18306;40.960;14.836;2022-07-22T11:49:09;4.10;;;3.08;;
31724;SDS011;18306;40.960;14.836;2022-07-22T11:51:39;4.72;;;2.22;;
31724;SDS011;18306;40.960;14.836;2022-07-22T11:54:07;2.47;;;2.28;;
31724;SDS011;18306;40.960;14.836;2022-07-22T11:56:35;4.68;;;2.63;;
31724;SDS011;18306;40.960;14.836;2022-07-22T11:59:03;4.88;;;2.00;;
31724;SDS011;18306;40.960;14.836;2022-07-22T12:01:35;3.75;;;2.60;;
31724;SDS011;18306;40.960;14.836;2022-07-22T12:04:06;3.78;;;2.00;;
31724;SDS011;18306;40.960;14.836;2022-07-22T12:06:35;1.80;;;1.70;;
31724;SDS011;18306;40.960;14.836;2022-07-22T12:09:13;3.33;;;2.45;;
31724;SDS011;18306;40.960;14.836;2022-07-22T12:11:42;4.05;;;2.72;;
31724;SDS011;18306;40.960;14.836;2022-07-22T12:14:17;2.30;;;2.10;;
31724;SDS011;18306;40.960;14.836;2022-07-22T12:17:08;2.78;;;2.20;;
31724;SDS011;18306;40.960;14.836;2022-07-22T12:19:37;3.22;;;2.20;;
31724;SDS011;18306;40.960;14.836;2022-07-22T12:22:06;3.92;;;2.95;;
31724;SDS011;18306;40.960;14.836;2022-07-22T12:24:36;10.20;;;2.38;;
31724;SDS011;18306;40.960;14.836;2022-07-22T12:27:12;4.88;;;2.38;;
31724;SDS011;18306;40.960;14.836;2022-07-22T12:35:06;2.88;;;2.28;;
31724;SDS011;18306;40.960;14.836;2022-07-22T12:37:40;4.20;;;2.22;;
31724;SDS011;18306;40.960;14.836;2022-07-22T12:42:45;9.80;;;2.17;;
31724;SDS011;18306;40.960;14.836;2022-07-22T12:47:54;2.28;;;2.08;;
31724;SDS011;18306;40.960;14.836;2022-07-22T12:50:34;2.97;;;2.00;;
31724;SDS011;18306;40.960;14.836;2022-07-22T12:55:40;1.88;;;1.77;;
31724;SDS011;18306;40.960;14.836;2022-07-22T12:58:12;5.17;;;1.90;;
31724;SDS011;18306;40.960;14.836;2022-07-22T13:00:41;4.60;;;2.10;;
31724;SDS011;18306;40.960;14.836;2022-07-22T13:03:10;2.78;;;2.03;;
31724;SDS011;18306;40.960;14.836;2022-07-22T13:05:38;1.67;;;1.58;;
31724;SDS011;18306;40.960;14.836;2022-07-22T13:08:07;3.22;;;2.38;;
31724;SDS011;18306;40.960;14.836;2022-07-22T13:10:36;2.55;;;2.25;;
31724;SDS011;18306;40.960;14.836;2022-07-22T13:13:03;3.30;;;2.20;;
31724;SDS011;18306;40.960;14.836;2022-07-22T13:15:30;1.92;;;1.77;;
31724;SDS011;18306;40.960;14.836;2022-07-22T13:17:57;2.38;;;1.83;;
31724;SDS011;18306;40.960;14.836;2022-07-22T13:20:25;4.45;;;1.75;;
31724;SDS011;18306;40.960;14.836;2022-07-22T13:22:52;1.67;;;1.58;;
31724;SDS011;18306;40.960;14.836;2022-07-22T13:25:19;2.10;;;1.80;;
31724;SDS011;18306;40.960;14.836;2022-07-22T13:27:46;3.47;;;1.90;;
31724;SDS011;18306;40.960;14.836;2022-07-22T13:30:13;5.07;;;2.20;;
31724;SDS011;18306;40.960;14.836;2022-07-22T13:32:46;2.03;;;1.70;;
31724;SDS011;18306;40.960;14.836;2022-07-22T13:35:13;3.22;;;1.92;;
31724;SDS011;18306;40.960;14.836;2022-07-22T13:37:40;3.92;;;2.20;;
31724;SDS011;18306;40.960;14.836;2022-07-22T13:40:07;4.45;;;2.00;;
31724;SDS011;18306;40.960;14.836;2022-07-22T13:42:35;1.98;;;1.63;;
31724;SDS011;18306;40.960;14.836;2022-07-22T13:45:02;2.70;;;1.98;;
31724;SDS011;18306;40.960;14.836;2022-07-22T13:47:30;2.05;;;1.90;;
31724;SDS011;18306;40.960;14.836;2022-07-22T13:49:57;2.63;;;2.30;;
31724;SDS011;18306;40.960;14.836;2022-07-22T13:52:25;8.30;;;2.22;;
31724;SDS011;18306;40.960;14.836;2022-07-22T13:54:52;4.43;;;3.15;;
31724;SDS011;18306;40.960;14.836;2022-07-22T13:57:19;6.18;;;3.10;;
31724;SDS011;18306;40.960;14.836;2022-07-22T13:59:46;4.82;;;3.53;;
31724;SDS011;18306;40.960;14.836;2022-07-22T14:02:14;6.00;;;3.55;;
31724;SDS011;18306;40.960;14.836;2022-07-22T14:04:41;8.90;;;3.50;;
31724;SDS011;18306;40.960;14.836;2022-07-22T14:07:09;5.18;;;4.03;;
31724;SDS011;18306;40.960;14.836;2022-07-22T14:09:36;6.68;;;4.43;;
31724;SDS011;18306;40.960;14.836;2022-07-22T14:12:04;7.10;;;4.45;;
31724;SDS011;18306;40.960;14.836;2022-07-22T14:14:31;8.48;;;4.53;;
31724;SDS011;18306;40.960;14.836;2022-07-22T14:16:59;5.00;;;4.13;;
31724;SDS011;18306;40.960;14.836;2022-07-22T14:19:30;7.85;;;4.30;;
31724;SDS011;18306;40.960;14.836;2022-07-22T14:21:59;5.32;;;4.30;;
31724;SDS011;18306;40.960;14.836;2022-07-22T14:24:27;5.75;;;5.05;;
31724;SDS011;18306;40.960;14.836;2022-07-22T14:26:55;11.57;;;5.40;;
31724;SDS011;18306;40.960;14.836;2022-07-22T14:29:26;6.72;;;5.60;;
31724;SDS011;18306;40.960;14.836;2022-07-22T14:31:53;8.82;;;5.32;;
31724;SDS011;18306;40.960;14.836;2022-07-22T14:34:22;5.80;;;4.18;;
31724;SDS011;18306;40.960;14.836;2022-07-22T14:36:50;6.45;;;4.97;;
31724;SDS011;18306;40.960;14.836;2022-07-22T14:39:21;5.32;;;4.43;;
31724;SDS011;18306;40.960;14.836;2022-07-22T14:41:50;6.10;;;4.35;;
31724;SDS011;18306;40.960;14.836;2022-07-22T14:44:17;6.22;;;4.78;;
31724;SDS011;18306;40.960;14.836;2022-07-22T14:46:45;12.45;;;5.15;;
31724;SDS011;18306;40.960;14.836;2022-07-22T14:49:17;7.80;;;4.90;;
31724;SDS011;18306;40.960;14.836;2022-07-22T14:51:45;11.40;;;6.00;;
31724;SDS011;18306;40.960;14.836;2022-07-22T14:54:12;5.47;;;4.88;;
31724;SDS011;18306;40.960;14.836;2022-07-22T14:56:39;6.05;;;4.55;;
31724;SDS011;18306;40.960;14.836;2022-07-22T14:59:06;6.45;;;5.20;;
31724;SDS011;18306;40.960;14.836;2022-07-22T15:01:33;9.10;;;4.32;;
31724;SDS011;18306;40.960;14.836;2022-07-22T15:04:01;4.18;;;3.72;;
31724;SDS011;18306;40.960;14.836;2022-07-22T15:06:28;6.05;;;4.75;;
31724;SDS011;18306;40.960;14.836;2022-07-22T15:08:55;8.77;;;4.78;;
31724;SDS011;18306;40.960;14.836;2022-07-22T15:11:22;4.43;;;3.95;;
31724;SDS011;18306;40.960;14.836;2022-07-22T15:13:51;6.47;;;4.28;;
31724;SDS011;18306;40.960;14.836;2022-07-22T15:16:18;6.25;;;4.53;;
31724;SDS011;18306;40.960;14.836;2022-07-22T15:18:46;4.63;;;4.15;;
31724;SDS011;18306;40.960;14.836;2022-07-22T15:21:13;4.63;;;4.13;;